createdAt,value
2018-08-25T00:00:14.408Z,14.70
2018-08-25T00:02:42.141Z,14.71
2018-08-25T00:05:09.932Z,14.72
2018-08-25T00:07:37.600Z,14.71
2018-08-25T00:10:05.663Z,14.71
2018-08-25T00:12:33.387Z,14.70
2018-08-25T00:15:01.081Z,14.75
2018-08-25T00:17:28.807Z,14.75
2018-08-25T00:19:56.629Z,14.75
2018-08-25T00:22:24.332Z,14.75
2018-08-25T00:24:52.101Z,14.72
2018-08-25T00:27:19.810Z,14.75
2018-08-25T00:29:47.535Z,14.75
2018-08-25T00:32:15.270Z,14.75
2018-08-25T00:34:43.004Z,14.74
2018-08-25T00:37:10.791Z,14.77
2018-08-25T00:39:38.537Z,14.78
2018-08-25T00:42:06.266Z,14.74
2018-08-25T00:44:33.996Z,14.77
2018-08-25T00:47:01.733Z,14.77
2018-08-25T00:49:29.496Z,14.77
2018-08-25T00:51:57.231Z,14.77
2018-08-25T00:54:24.947Z,14.76
2018-08-25T00:56:52.683Z,14.76
2018-08-25T00:59:20.412Z,14.77
2018-08-25T01:01:48.137Z,14.77
2018-08-25T01:04:15.870Z,14.77
2018-08-25T01:06:43.553Z,14.77
2018-08-25T01:09:11.268Z,14.77
2018-08-25T01:11:39.058Z,14.78
2018-08-25T01:14:06.795Z,14.76
2018-08-25T01:16:34.532Z,14.79
2018-08-25T01:19:02.350Z,14.81
2018-08-25T01:21:30.036Z,14.83
2018-08-25T01:23:57.731Z,14.84
2018-08-25T01:26:25.440Z,14.84
2018-08-25T01:28:53.216Z,14.84
2018-08-25T01:31:20.913Z,14.86
2018-08-25T01:33:48.600Z,14.88
2018-08-25T01:36:16.348Z,14.89
2018-08-25T01:38:44.064Z,14.88
2018-08-25T01:41:11.756Z,14.90
2018-08-25T01:43:39.472Z,14.91
2018-08-25T01:46:07.174Z,14.93
2018-08-25T01:48:34.857Z,14.92
2018-08-25T01:51:02.568Z,14.92
2018-08-25T01:53:30.253Z,14.93
2018-08-25T01:55:57.956Z,14.95
2018-08-25T01:58:25.689Z,14.95
2018-08-25T02:00:53.368Z,14.94
2018-08-25T02:03:21.052Z,14.97
2018-08-25T02:05:48.824Z,14.97
2018-08-25T02:08:16.512Z,14.98
2018-08-25T02:10:44.200Z,14.99
2018-08-25T02:13:11.942Z,15.00
2018-08-25T02:15:39.676Z,15.00
2018-08-25T02:18:07.368Z,15.01
2018-08-25T02:20:35.104Z,15.01
2018-08-25T02:23:02.784Z,14.99
2018-08-25T02:25:30.487Z,15.02
2018-08-25T02:27:58.238Z,15.04
2018-08-25T02:30:25.944Z,15.04
2018-08-25T02:32:53.632Z,15.03
2018-08-25T02:35:21.349Z,15.04
2018-08-25T02:37:49.051Z,15.06
2018-08-25T02:40:16.824Z,15.05
2018-08-25T02:42:44.607Z,15.07
2018-08-25T02:45:12.334Z,15.07
2018-08-25T02:47:40.012Z,15.08
2018-08-25T02:50:07.788Z,15.03
2018-08-25T02:52:35.541Z,15.05
2018-08-25T02:55:03.284Z,15.04
2018-08-25T02:57:31.032Z,15.01
2018-08-25T02:59:58.732Z,15.00
2018-08-25T03:02:26.396Z,15.00
2018-08-25T03:04:54.104Z,14.95
2018-08-25T03:07:21.823Z,14.97
2018-08-25T03:09:49.517Z,14.93
2018-08-25T03:12:17.235Z,14.89
2018-08-25T03:14:44.914Z,14.84
2018-08-25T03:17:12.620Z,14.78
2018-08-25T03:19:40.347Z,14.75
2018-08-25T03:22:08.061Z,14.72
2018-08-25T03:24:35.823Z,14.63
2018-08-25T03:27:03.711Z,14.58
2018-08-25T03:29:31.428Z,14.49
2018-08-25T03:31:59.136Z,14.45
2018-08-25T03:34:26.826Z,14.35
2018-08-25T03:36:54.536Z,14.30
2018-08-25T03:39:22.247Z,14.23
2018-08-25T03:41:49.940Z,14.18
2018-08-25T03:44:17.604Z,14.03
2018-08-25T03:46:45.320Z,14.05
2018-08-25T03:49:13.033Z,14.02
2018-08-25T03:51:40.880Z,13.97
2018-08-25T03:54:08.556Z,13.94
2018-08-25T03:56:36.222Z,13.89
2018-08-25T03:59:03.998Z,13.83
2018-08-25T04:01:32.074Z,13.77
2018-08-25T04:03:59.731Z,13.72
2018-08-25T04:06:27.571Z,13.69
2018-08-25T04:08:55.256Z,13.63
2018-08-25T04:11:22.976Z,13.58
2018-08-25T04:13:50.763Z,13.53
2018-08-25T04:16:18.457Z,13.48
2018-08-25T04:18:46.165Z,13.45
2018-08-25T04:21:13.895Z,13.35
2018-08-25T04:23:41.600Z,13.34
2018-08-25T04:26:09.274Z,13.29
2018-08-25T04:28:36.991Z,13.24
2018-08-25T04:31:04.720Z,13.17
2018-08-25T04:33:32.823Z,13.18
2018-08-25T04:36:00.523Z,13.19
2018-08-25T04:38:28.245Z,13.16
2018-08-25T04:40:55.957Z,13.11
2018-08-25T04:43:23.674Z,13.12
2018-08-25T04:45:51.462Z,13.13
2018-08-25T04:48:19.160Z,13.12
2018-08-25T04:50:46.924Z,13.10
2018-08-25T04:53:14.629Z,13.08
2018-08-25T04:55:42.307Z,13.11
2018-08-25T04:58:10.079Z,13.09
2018-08-25T05:00:37.751Z,13.17
2018-08-25T05:03:05.517Z,13.22
2018-08-25T05:05:33.246Z,13.20
2018-08-25T05:08:01.012Z,13.19
2018-08-25T05:10:28.723Z,13.17
2018-08-25T05:12:56.472Z,13.62
2018-08-25T05:15:24.168Z,13.81
2018-08-25T05:17:51.877Z,13.75
2018-08-25T05:20:19.617Z,14.03
2018-08-25T05:22:47.300Z,14.36
2018-08-25T05:25:14.973Z,14.61
2018-08-25T05:27:42.692Z,15.07
2018-08-25T05:30:10.453Z,15.37
2018-08-25T05:32:38.180Z,15.19
2018-08-25T05:35:06.292Z,15.20
2018-08-25T05:37:34.020Z,15.04
2018-08-25T05:40:01.722Z,14.87
2018-08-25T05:42:29.447Z,14.96
2018-08-25T05:44:57.178Z,14.93
2018-08-25T05:47:25.015Z,14.96
2018-08-25T05:49:52.713Z,14.86
2018-08-25T05:52:20.504Z,14.75
2018-08-25T05:54:48.212Z,14.85
2018-08-25T05:57:15.893Z,14.93
2018-08-25T05:59:43.647Z,14.83
2018-08-25T06:02:11.468Z,14.80
2018-08-25T06:04:39.164Z,14.88
2018-08-25T06:07:07.012Z,15.12
2018-08-25T06:09:34.723Z,15.44
2018-08-25T06:12:02.426Z,15.58
2018-08-25T06:14:30.158Z,16.16
2018-08-25T06:16:57.860Z,16.66
2018-08-25T06:19:25.620Z,17.05
2018-08-25T06:21:53.348Z,17.27
2018-08-25T06:24:21.126Z,17.03
2018-08-25T06:26:48.844Z,16.77
2018-08-25T06:29:16.572Z,16.48
2018-08-25T06:31:44.324Z,16.27
2018-08-25T06:34:12.041Z,15.92
2018-08-25T06:36:39.910Z,16.18
2018-08-25T06:39:08.646Z,16.85
2018-08-25T06:41:36.438Z,17.32
2018-08-25T06:44:04.155Z,17.75
2018-08-25T06:46:31.896Z,17.72
2018-08-25T06:48:59.674Z,17.77
2018-08-25T06:51:27.425Z,17.66
2018-08-25T06:53:55.270Z,17.48
2018-08-25T06:56:22.990Z,17.27
2018-08-25T06:58:50.717Z,17.12
2018-08-25T07:01:18.432Z,17.22
2018-08-25T07:03:46.284Z,17.69
2018-08-25T07:06:14.067Z,17.97
2018-08-25T07:08:41.763Z,18.35
2018-08-25T07:11:09.591Z,18.71
2018-08-25T07:13:37.311Z,19.09
2018-08-25T07:16:05.157Z,19.09
2018-08-25T07:18:32.986Z,18.77
2018-08-25T07:21:00.982Z,18.72
2018-08-25T07:23:29.026Z,18.53
2018-08-25T07:25:56.869Z,18.70
2018-08-25T07:28:24.590Z,18.39
2018-08-25T07:30:52.368Z,18.73
2018-08-25T07:33:20.111Z,18.84
2018-08-25T07:35:47.896Z,18.83
2018-08-25T07:38:15.695Z,18.99
2018-08-25T07:40:43.459Z,18.97
2018-08-25T07:43:11.181Z,19.08
2018-08-25T07:45:38.920Z,18.90
2018-08-25T07:48:06.633Z,18.90
2018-08-25T07:50:34.373Z,18.64
2018-08-25T07:53:02.089Z,18.94
2018-08-25T07:55:29.895Z,19.17
2018-08-25T07:57:57.601Z,19.01
2018-08-25T08:00:25.345Z,18.94
2018-08-25T08:02:53.071Z,19.30
2018-08-25T08:05:21.483Z,18.89
2018-08-25T08:07:49.220Z,18.31
2018-08-25T08:10:16.960Z,18.13
2018-08-25T08:12:44.713Z,17.83
2018-08-25T08:15:12.464Z,17.79
2018-08-25T08:17:40.161Z,18.01
2018-08-25T08:20:07.976Z,18.31
2018-08-25T08:22:35.707Z,18.53
2018-08-25T08:25:03.637Z,18.94
2018-08-25T08:27:31.348Z,19.02
2018-08-25T08:29:59.068Z,19.04
2018-08-25T08:32:26.844Z,18.84
2018-08-25T08:34:54.587Z,19.13
2018-08-25T08:37:22.321Z,19.16
2018-08-25T08:39:50.093Z,19.26
2018-08-25T08:42:17.817Z,19.23
2018-08-25T08:44:45.556Z,19.55
2018-08-25T08:47:13.309Z,19.74
2018-08-25T08:49:46.748Z,19.53
2018-08-25T08:52:08.811Z,19.53
2018-08-25T08:54:36.618Z,19.25
2018-08-25T08:57:04.356Z,19.62
2018-08-25T08:59:32.100Z,19.44
2018-08-25T09:01:59.862Z,19.56
2018-08-25T09:04:27.565Z,19.34
2018-08-25T09:06:55.286Z,19.47
2018-08-25T09:09:23.076Z,19.73
2018-08-25T09:11:50.870Z,19.52
2018-08-25T09:14:18.552Z,19.89
2018-08-25T09:16:46.259Z,19.85
2018-08-25T09:19:14.021Z,19.97
2018-08-25T09:21:41.768Z,19.88
2018-08-25T09:24:09.504Z,20.07
2018-08-25T09:26:37.243Z,20.13
2018-08-25T09:29:05.593Z,20.32
2018-08-25T09:31:33.395Z,19.83
2018-08-25T09:34:01.097Z,19.61
2018-08-25T09:36:28.950Z,19.76
2018-08-25T09:38:56.652Z,19.56
2018-08-25T09:41:24.356Z,19.64
2018-08-25T09:43:52.100Z,19.38
2018-08-25T09:46:19.832Z,19.21
2018-08-25T09:48:47.603Z,19.05
2018-08-25T09:51:15.365Z,18.74
2018-08-25T09:53:43.150Z,18.32
2018-08-25T09:56:10.856Z,18.08
2018-08-25T09:58:38.603Z,17.97
2018-08-25T10:02:09.592Z,18.35
2018-08-25T10:04:37.302Z,18.54
2018-08-25T10:07:05.488Z,18.40
2018-08-25T10:09:33.265Z,18.61
2018-08-25T10:12:00.982Z,18.74
2018-08-25T10:14:28.813Z,18.59
2018-08-25T10:16:56.587Z,18.64
2018-08-25T10:19:24.348Z,18.78
2018-08-25T10:21:52.303Z,18.54
2018-08-25T10:24:20.289Z,18.42
2018-08-25T10:26:48.095Z,18.50
2018-08-25T10:29:15.861Z,18.86
2018-08-25T10:31:43.597Z,19.13
2018-08-25T10:34:11.356Z,19.40
2018-08-25T10:36:39.117Z,19.36
2018-08-25T10:39:08.844Z,19.51
2018-08-25T10:41:36.628Z,19.60
2018-08-25T10:44:05.144Z,19.77
2018-08-25T10:46:32.857Z,20.07
2018-08-25T10:49:00.556Z,20.18
2018-08-25T10:51:28.442Z,20.18
2018-08-25T10:53:56.223Z,20.13
2018-08-25T10:56:23.940Z,20.25
2018-08-25T10:58:51.672Z,20.13
2018-08-25T11:01:19.496Z,19.64
2018-08-25T11:03:47.203Z,19.62
2018-08-25T11:06:14.935Z,19.43
2018-08-25T11:08:42.708Z,19.28
2018-08-25T11:11:10.461Z,18.78
2018-08-25T11:13:38.203Z,18.82
2018-08-25T11:16:05.941Z,18.81
2018-08-25T11:18:33.656Z,18.58
2018-08-25T11:21:01.429Z,18.31
2018-08-25T11:23:29.135Z,18.15
2018-08-25T11:25:56.895Z,18.68
2018-08-25T11:28:24.691Z,18.70
2018-08-25T11:30:52.415Z,19.11
2018-08-25T11:33:20.124Z,19.30
2018-08-25T11:35:47.838Z,19.60
2018-08-25T11:38:15.583Z,19.38
2018-08-25T11:40:43.362Z,19.42
2018-08-25T11:43:11.132Z,19.72
2018-08-25T11:45:38.858Z,19.45
2018-08-25T11:48:06.627Z,19.59
2018-08-25T11:50:34.347Z,19.63
2018-08-25T11:53:02.111Z,19.73
2018-08-25T11:55:29.905Z,19.75
2018-08-25T11:57:57.642Z,19.92
2018-08-25T12:00:25.475Z,20.09
2018-08-25T12:02:53.223Z,20.25
2018-08-25T12:05:20.936Z,19.94
2018-08-25T12:07:48.671Z,20.09
2018-08-25T12:10:16.442Z,19.76
2018-08-25T12:12:44.144Z,19.89
2018-08-25T12:15:11.886Z,19.78
2018-08-25T12:17:39.633Z,19.86
2018-08-25T12:20:07.411Z,19.60
2018-08-25T12:22:35.125Z,19.47
2018-08-25T12:25:02.931Z,19.40
2018-08-25T12:27:30.644Z,19.37
2018-08-25T12:29:58.358Z,19.44
2018-08-25T12:32:26.736Z,19.55
2018-08-25T12:34:54.480Z,19.35
2018-08-25T12:37:22.207Z,19.05
2018-08-25T12:39:49.942Z,19.09
2018-08-25T12:42:17.672Z,19.02
2018-08-25T12:44:45.400Z,19.19
2018-08-25T12:47:13.144Z,19.21
2018-08-25T12:49:40.827Z,19.20
2018-08-25T12:52:08.550Z,19.08
2018-08-25T12:54:36.270Z,19.04
2018-08-25T12:57:04.864Z,19.19
2018-08-25T12:59:32.621Z,18.97
2018-08-25T13:02:00.553Z,18.86
2018-08-25T13:04:28.283Z,18.62
2018-08-25T13:06:56.044Z,18.49
2018-08-25T13:09:23.752Z,18.44
2018-08-25T13:11:51.513Z,18.01
2018-08-25T13:14:19.253Z,17.87
2018-08-25T13:16:46.943Z,17.98
2018-08-25T13:19:14.637Z,17.83
2018-08-25T13:21:42.340Z,17.81
2018-08-25T13:24:10.111Z,17.85
2018-08-25T13:26:37.816Z,17.79
2018-08-25T13:29:05.544Z,17.61
2018-08-25T13:31:33.308Z,17.32
2018-08-25T13:34:01.005Z,17.19
2018-08-25T13:36:28.697Z,17.00
2018-08-25T13:38:56.468Z,16.96
2018-08-25T13:41:24.147Z,17.11
2018-08-25T13:43:51.865Z,17.01
2018-08-25T13:46:19.665Z,16.81
2018-08-25T13:48:47.429Z,16.85
2018-08-25T13:51:15.143Z,16.72
2018-08-25T13:53:42.963Z,16.64
2018-08-25T13:56:10.759Z,16.39
2018-08-25T13:58:38.467Z,16.49
2018-08-25T14:01:06.235Z,16.63
2018-08-25T14:03:33.973Z,16.66
2018-08-25T14:06:01.671Z,16.49
2018-08-25T14:08:29.553Z,16.32
2018-08-25T14:10:57.081Z,16.08
2018-08-25T14:13:24.816Z,16.14
2018-08-25T14:15:52.611Z,16.12
2018-08-25T14:18:20.404Z,15.97
2018-08-25T14:20:48.083Z,16.03
2018-08-25T14:23:15.796Z,15.89
2018-08-25T14:25:43.503Z,15.85
2018-08-25T14:28:11.225Z,15.91
2018-08-25T14:30:38.939Z,15.89
2018-08-25T14:33:06.794Z,16.06
2018-08-25T14:35:34.500Z,16.04
2018-08-25T14:38:02.192Z,15.89
2018-08-25T14:40:29.912Z,15.66
2018-08-25T14:42:57.633Z,15.69
2018-08-25T14:45:25.530Z,15.52
2018-08-25T14:47:53.264Z,15.60
2018-08-25T14:50:21.028Z,15.64
2018-08-25T14:52:48.720Z,15.61
2018-08-25T14:55:16.425Z,15.52
2018-08-25T14:57:44.192Z,15.47
2018-08-25T15:00:11.900Z,15.55
2018-08-25T15:02:39.560Z,15.59
2018-08-25T15:05:07.459Z,15.58
2018-08-25T15:07:35.151Z,15.54
2018-08-25T15:10:03.020Z,15.49
2018-08-25T15:12:30.738Z,15.37
2018-08-25T15:14:58.568Z,15.43
2018-08-25T15:17:26.272Z,15.43
2018-08-25T15:19:53.973Z,15.33
2018-08-25T15:22:21.714Z,15.34
2018-08-25T15:24:49.383Z,15.32
2018-08-25T15:27:17.283Z,15.37
2018-08-25T15:29:45.004Z,15.38
2018-08-25T15:32:12.712Z,15.42
2018-08-25T15:34:40.455Z,15.37
2018-08-25T15:37:08.230Z,15.30
2018-08-25T15:39:35.952Z,15.27
2018-08-25T15:42:03.647Z,15.26
2018-08-25T15:44:31.370Z,15.25
2018-08-25T15:46:59.083Z,15.27
2018-08-25T15:49:26.767Z,15.26
2018-08-25T15:51:54.579Z,15.22
2018-08-25T15:54:22.237Z,15.12
2018-08-25T15:56:49.990Z,15.06
2018-08-25T15:59:17.664Z,14.99
2018-08-25T16:01:45.367Z,14.86
2018-08-25T16:04:13.152Z,14.81
2018-08-25T16:06:40.899Z,14.79
2018-08-25T16:09:10.134Z,14.79
2018-08-25T16:11:37.854Z,14.72
2018-08-25T16:14:05.806Z,14.67
2018-08-25T16:16:33.559Z,14.60
2018-08-25T16:19:01.386Z,14.55
2018-08-25T16:21:29.118Z,14.47
2018-08-25T16:23:56.817Z,14.44
2018-08-25T16:26:24.546Z,14.40
2018-08-25T16:28:52.244Z,14.35
2018-08-25T16:31:19.966Z,14.26
2018-08-25T16:33:47.720Z,14.19
2018-08-25T16:36:15.380Z,14.15
2018-08-25T16:38:43.117Z,14.08
2018-08-25T16:41:10.841Z,14.04
2018-08-25T16:43:38.556Z,14.02
2018-08-25T16:46:06.311Z,13.98
2018-08-25T16:48:34.140Z,13.97
2018-08-25T16:51:01.824Z,13.93
2018-08-25T16:53:29.534Z,13.86
2018-08-25T16:55:57.464Z,13.81
2018-08-25T16:58:25.108Z,13.79
2018-08-25T17:00:52.824Z,13.78
2018-08-25T17:03:20.558Z,13.78
2018-08-25T17:05:48.265Z,13.77
2018-08-25T17:08:15.936Z,13.82
2018-08-25T17:10:43.706Z,13.83
2018-08-25T17:13:11.424Z,13.81
2018-08-25T17:15:39.122Z,13.81
2018-08-25T17:18:06.821Z,13.79
2018-08-25T17:20:34.549Z,13.79
2018-08-25T17:23:02.543Z,13.81
2018-08-25T17:25:30.272Z,13.81
2018-08-25T17:27:58.056Z,13.77
2018-08-25T17:30:25.852Z,13.75
2018-08-25T17:32:53.622Z,13.75
2018-08-25T17:35:21.294Z,13.74
2018-08-25T17:37:49.056Z,13.72
2018-08-25T17:40:16.805Z,13.73
2018-08-25T17:42:44.550Z,13.71
2018-08-25T17:45:12.428Z,13.71
2018-08-25T17:47:40.037Z,13.71
2018-08-25T17:50:07.902Z,13.71
2018-08-25T17:52:35.650Z,13.67
2018-08-25T17:55:03.399Z,13.60
2018-08-25T17:57:31.228Z,13.55
2018-08-25T17:59:58.905Z,13.49
2018-08-25T18:02:26.602Z,13.40
2018-08-25T18:04:54.285Z,13.36
2018-08-25T18:07:22.020Z,13.31
2018-08-25T18:09:49.721Z,13.26
2018-08-25T18:12:17.487Z,13.21
2018-08-25T18:14:45.181Z,13.21
2018-08-25T18:17:12.897Z,13.19
2018-08-25T18:19:40.628Z,13.19
2018-08-25T18:22:08.313Z,13.18
2018-08-25T18:24:36.096Z,13.16
2018-08-25T18:27:04.044Z,13.14
2018-08-25T18:29:31.745Z,13.12
2018-08-25T18:31:59.610Z,13.12
2018-08-25T18:34:27.324Z,13.13
2018-08-25T18:36:55.151Z,13.08
2018-08-25T18:39:22.865Z,13.05
2018-08-25T18:41:50.616Z,13.03
2018-08-25T18:44:18.316Z,13.02
2018-08-25T18:46:46.092Z,13.01
2018-08-25T18:49:13.813Z,12.96
2018-08-25T18:51:41.536Z,12.97
2018-08-25T18:54:09.248Z,12.96
2018-08-25T18:56:37.290Z,12.96
2018-08-25T18:59:05.054Z,12.94
2018-08-25T19:01:32.807Z,12.91
2018-08-25T19:04:00.930Z,12.88
2018-08-25T19:06:28.691Z,12.84
2018-08-25T19:08:56.438Z,12.83
2018-08-25T19:11:24.201Z,12.77
2018-08-25T19:13:52.183Z,12.75
2018-08-25T19:16:19.876Z,12.75
2018-08-25T19:18:47.587Z,12.69
2018-08-25T19:21:15.748Z,12.65
2018-08-25T19:23:43.520Z,12.61
2018-08-25T19:26:11.216Z,12.50
2018-08-25T19:28:38.944Z,12.44
2018-08-25T19:31:06.629Z,12.34
2018-08-25T19:33:34.388Z,12.27
2018-08-25T19:36:02.099Z,12.24
2018-08-25T19:38:29.820Z,12.17
2018-08-25T19:40:57.665Z,12.11
2018-08-25T19:43:25.411Z,12.03
2018-08-25T19:45:53.160Z,11.96
2018-08-25T19:48:20.964Z,11.89
2018-08-25T19:50:48.680Z,11.82
2018-08-25T19:53:16.420Z,11.77
2018-08-25T19:55:44.436Z,11.73
2018-08-25T19:58:12.169Z,11.67
2018-08-25T20:00:39.896Z,11.63
2018-08-25T20:03:07.602Z,11.60
2018-08-25T20:05:35.358Z,11.58
2018-08-25T20:08:03.040Z,11.53
2018-08-25T20:10:30.768Z,11.45
2018-08-25T20:12:58.528Z,11.37
2018-08-25T20:15:26.270Z,11.33
2018-08-25T20:17:54.004Z,11.22
2018-08-25T20:20:21.715Z,11.13
2018-08-25T20:22:49.404Z,11.02
2018-08-25T20:25:17.113Z,10.93
2018-08-25T20:27:44.967Z,10.84
2018-08-25T20:30:12.729Z,10.77
2018-08-25T20:32:40.373Z,10.46
2018-08-25T20:35:08.239Z,10.59
2018-08-25T20:37:35.916Z,10.51
2018-08-25T20:40:04.128Z,10.43
2018-08-25T20:42:31.919Z,10.36
2018-08-25T20:44:59.615Z,10.26
2018-08-25T20:47:27.587Z,10.21
2018-08-25T20:49:55.319Z,10.12
2018-08-25T20:52:23.069Z,10.03
2018-08-25T20:54:50.796Z,9.96
2018-08-25T20:57:18.568Z,9.88
2018-08-25T20:59:46.274Z,9.80
2018-08-25T21:02:13.942Z,9.71
2018-08-25T21:04:41.764Z,9.66
2018-08-25T21:07:09.492Z,9.58
2018-08-25T21:09:37.163Z,9.45
2018-08-25T21:12:04.961Z,9.34
2018-08-25T21:14:32.714Z,9.29
2018-08-25T21:17:00.448Z,9.24
2018-08-25T21:19:28.203Z,9.19
2018-08-25T21:21:55.895Z,9.12
2018-08-25T21:24:23.675Z,9.04
2018-08-25T21:26:51.397Z,8.95
2018-08-25T21:29:19.106Z,8.90
2018-08-25T21:31:46.845Z,8.85
2018-08-25T21:34:14.524Z,8.79
2018-08-25T21:36:42.345Z,8.72
2018-08-25T21:39:11.592Z,8.64
2018-08-25T21:41:39.268Z,8.57
2018-08-25T21:44:07.280Z,8.49
2018-08-25T21:46:35.303Z,8.40
2018-08-25T21:49:03.123Z,8.34
2018-08-25T21:51:31.119Z,8.27
2018-08-25T21:53:58.868Z,8.22
2018-08-25T21:56:26.569Z,8.14
2018-08-25T21:58:54.228Z,8.08
2018-08-25T22:01:21.914Z,7.99
2018-08-25T22:03:49.637Z,7.93
2018-08-25T22:06:17.376Z,7.85
2018-08-25T22:08:45.081Z,7.78
2018-08-25T22:11:12.784Z,7.71
2018-08-25T22:13:40.497Z,7.67
2018-08-25T22:16:08.280Z,7.63
2018-08-25T22:18:35.955Z,7.58
2018-08-25T22:21:03.681Z,7.54
2018-08-25T22:23:31.360Z,7.52
2018-08-25T22:25:59.047Z,7.48
2018-08-25T22:28:26.751Z,7.43
2018-08-25T22:30:54.600Z,7.35
2018-08-25T22:33:22.275Z,7.26
2018-08-25T22:35:50.035Z,7.16
2018-08-25T22:38:17.732Z,7.06
2018-08-25T22:40:45.429Z,6.92
2018-08-25T22:43:13.175Z,6.90
2018-08-25T22:45:40.854Z,6.85
2018-08-25T22:48:08.515Z,6.81
2018-08-25T22:50:36.263Z,6.73
2018-08-25T22:53:04.006Z,6.65
2018-08-25T22:55:31.745Z,6.54
2018-08-25T22:57:59.500Z,6.44
2018-08-25T23:00:27.217Z,6.36
2018-08-25T23:02:54.921Z,6.30
2018-08-25T23:05:22.644Z,6.25
2018-08-25T23:07:50.335Z,6.20
2018-08-25T23:10:18.016Z,6.17
2018-08-25T23:12:45.714Z,6.11
2018-08-25T23:15:13.435Z,6.04
2018-08-25T23:17:41.120Z,5.95
2018-08-25T23:20:08.828Z,5.87
2018-08-25T23:22:36.588Z,5.84
2018-08-25T23:25:04.365Z,5.77
2018-08-25T23:27:32.076Z,5.64
2018-08-25T23:29:59.778Z,5.48
2018-08-25T23:32:27.477Z,5.41
2018-08-25T23:34:55.192Z,5.32
2018-08-25T23:37:22.874Z,5.30
2018-08-25T23:39:50.543Z,5.26
2018-08-25T23:42:18.319Z,5.20
2018-08-25T23:44:46.024Z,5.18
2018-08-25T23:47:13.744Z,5.12
2018-08-25T23:49:41.457Z,5.05
2018-08-25T23:52:09.479Z,4.95
2018-08-25T23:54:37.180Z,4.87
2018-08-25T23:57:05.131Z,4.84
2018-08-25T23:59:32.838Z,4.79
